Time;durP1;ratioP1;P1;durP2;ratioP2;P2;SDS_P1;SDS_P2;PMS_P1;PMS_P2;Temp;Humidity;BMP_temperature;BMP_pressure;BME280_temperature;BME280_humidity;BME280_pressure;Samples;Min_cycle;Max_cycle;Signal;HPM_P1;HPM_P2
2024/02/22 00:02:21;;;;;;;3.70;2.80;;;9.00;99.90;;;;;;5032716;28;20272;-60
2024/02/22 00:04:48;;;;;;;5.38;3.95;;;9.00;99.90;;;;;;5033092;28;20203;-58
2024/02/22 00:07:16;;;;;;;5.15;2.90;;;8.90;99.90;;;;;;5033108;28;20209;-60
2024/02/22 00:09:44;;;;;;;7.32;3.15;;;8.90;99.90;;;;;;5032622;28;20704;-60
2024/02/22 00:12:11;;;;;;;2.90;2.63;;;8.90;99.90;;;;;;5032788;28;20223;-60
2024/02/22 00:14:39;;;;;;;4.07;3.20;;;8.80;99.90;;;;;;5033496;28;20199;-59
2024/02/22 00:17:06;;;;;;;8.60;3.13;;;8.70;99.90;;;;;;5032789;28;20211;-60
2024/02/22 00:19:33;;;;;;;4.25;3.05;;;8.70;99.90;;;;;;5033115;28;20198;-60
2024/02/22 00:22:00;;;;;;;7.13;2.70;;;8.70;99.90;;;;;;5032796;28;20225;-60
2024/02/22 00:24:27;;;;;;;7.95;3.15;;;8.70;99.90;;;;;;5032883;28;20236;-60
2024/02/22 00:26:55;;;;;;;3.72;2.85;;;8.70;99.90;;;;;;5032501;28;20676;-60
2024/02/22 00:29:21;;;;;;;8.05;3.55;;;8.70;99.90;;;;;;5035581;28;20199;-59
2024/02/22 00:31:54;;;;;;;5.57;3.35;;;8.70;99.90;;;;;;5036762;28;20223;-61
2024/02/22 00:34:21;;;;;;;4.95;2.80;;;8.70;99.90;;;;;;5036958;28;20210;-60
2024/02/22 00:36:47;;;;;;;4.78;2.60;;;8.70;99.90;;;;;;5036890;28;20199;-60
2024/02/22 00:39:14;;;;;;;4.80;2.58;;;8.70;99.90;;;;;;5036581;28;20715;-59
2024/02/22 00:41:41;;;;;;;5.10;3.20;;;8.70;99.90;;;;;;5036943;28;20267;-60
2024/02/22 00:44:09;;;;;;;4.65;3.15;;;8.70;99.90;;;;;;5036850;28;20205;-59
2024/02/22 00:46:36;;;;;;;5.40;3.58;;;8.60;99.90;;;;;;5037439;28;20199;-61
2024/02/22 00:49:03;;;;;;;3.65;3.25;;;8.60;99.90;;;;;;5036336;28;20554;-60
2024/02/22 00:51:30;;;;;;;5.85;3.47;;;8.60;99.90;;;;;;5036508;28;20225;-62
2024/02/22 00:53:57;;;;;;;4.00;3.45;;;8.60;99.90;;;;;;5036932;28;20213;-59
2024/02/22 00:56:24;;;;;;;4.10;2.85;;;8.60;99.90;;;;;;5036723;28;20299;-60
2024/02/22 00:58:50;;;;;;;6.07;3.53;;;8.60;99.90;;;;;;5036308;28;20226;-59
2024/02/22 01:01:18;;;;;;;6.78;4.03;;;8.50;99.90;;;;;;5036208;28;20285;-60
2024/02/22 01:03:45;;;;;;;4.85;2.83;;;8.50;99.90;;;;;;5036356;28;20202;-60
2024/02/22 01:06:13;;;;;;;4.20;2.90;;;8.50;99.90;;;;;;5036527;28;20210;-60
2024/02/22 01:08:40;;;;;;;5.28;3.50;;;8.40;99.90;;;;;;5036651;28;20230;-60
2024/02/22 01:11:07;;;;;;;3.88;3.13;;;8.40;99.90;;;;;;5036505;28;20217;-60
2024/02/22 01:13:34;;;;;;;3.53;2.88;;;8.40;99.90;;;;;;5035763;28;20661;-59
2024/02/22 01:16:00;;;;;;;3.45;3.15;;;8.40;99.90;;;;;;5036282;28;20229;-60
2024/02/22 01:18:28;;;;;;;7.38;3.15;;;8.40;99.90;;;;;;5035994;28;20251;-59
2024/02/22 01:20:55;;;;;;;3.33;3.03;;;8.40;99.90;;;;;;5035615;28;20203;-61
2024/02/22 01:23:22;;;;;;;5.35;3.00;;;8.40;99.90;;;;;;5035739;28;20608;-60
2024/02/22 01:25:49;;;;;;;3.63;2.72;;;8.40;99.90;;;;;;5035409;28;20650;-60
2024/02/22 01:28:16;;;;;;;3.85;2.83;;;8.40;99.90;;;;;;5035481;28;20196;-60
2024/02/22 01:30:43;;;;;;;3.55;2.72;;;8.30;99.90;;;;;;5035692;28;20209;-59
2024/02/22 01:33:10;;;;;;;5.15;3.33;;;8.30;99.90;;;;;;5035533;28;20564;-60
2024/02/22 01:35:38;;;;;;;5.38;2.80;;;8.30;99.90;;;;;;5035246;28;20206;-59
2024/02/22 01:38:05;;;;;;;4.72;3.00;;;8.30;99.90;;;;;;5035166;28;20239;-59
2024/02/22 01:40:31;;;;;;;4.75;2.83;;;8.30;99.90;;;;;;5034639;28;20210;-60
2024/02/22 01:42:58;;;;;;;5.25;3.20;;;8.30;99.90;;;;;;5035371;28;20262;-59
2024/02/22 01:45:25;;;;;;;5.53;3.72;;;8.30;99.90;;;;;;5036007;28;20214;-59
2024/02/22 01:47:53;;;;;;;4.93;2.90;;;8.20;99.90;;;;;;5035267;28;20209;-58
2024/02/22 01:50:20;;;;;;;5.13;2.60;;;8.20;99.90;;;;;;5035146;28;20227;-61
2024/02/22 01:52:48;;;;;;;3.85;3.22;;;8.20;99.90;;;;;;5035009;28;20219;-57
2024/02/22 01:55:16;;;;;;;6.30;2.90;;;8.10;99.90;;;;;;5035112;28;20714;-59
2024/02/22 01:57:43;;;;;;;4.00;3.10;;;8.20;99.90;;;;;;5034958;28;20245;-59
2024/02/22 02:00:15;;;;;;;3.78;3.15;;;8.20;99.90;;;;;;5034976;28;20212;-59
2024/02/22 02:02:43;;;;;;;3.50;3.15;;;8.20;99.90;;;;;;5034634;28;20233;-60
2024/02/22 02:05:10;;;;;;;3.25;2.83;;;8.20;99.90;;;;;;5034639;28;20624;-60
2024/02/22 02:07:36;;;;;;;6.25;3.33;;;8.10;99.90;;;;;;5034697;28;20670;-58
2024/02/22 02:10:08;;;;;;;5.40;4.10;;;8.20;99.90;;;;;;5034627;28;20205;-58
2024/02/22 02:12:35;;;;;;;5.05;2.90;;;8.10;99.90;;;;;;5034859;28;20697;-61
2024/02/22 02:15:02;;;;;;;3.72;3.38;;;8.10;99.90;;;;;;5034751;28;20205;-59
2024/02/22 02:17:29;;;;;;;6.10;3.15;;;8.10;99.90;;;;;;5034817;28;20587;-60
2024/02/22 02:19:58;;;;;;;4.25;3.20;;;8.10;99.90;;;;;;5034495;28;20312;-59
2024/02/22 02:22:43;;;;;;;4.18;3.50;;;8.10;99.90;;;;;;5034820;28;20232;-59
2024/02/22 02:25:12;;;;;;;4.53;3.25;;;8.10;99.90;;;;;;5034872;28;20204;-59
2024/02/22 02:27:39;;;;;;;3.25;2.95;;;8.10;99.90;;;;;;5034936;28;20229;-58
2024/02/22 02:30:06;;;;;;;3.33;3.03;;;8.10;99.90;;;;;;5035521;28;20230;-60
2024/02/22 02:32:33;;;;;;;4.55;3.05;;;8.10;99.90;;;;;;5035020;28;20730;-59
2024/02/22 02:35:00;;;;;;;4.68;3.38;;;8.10;99.90;;;;;;5035055;28;20205;-58
2024/02/22 02:37:26;;;;;;;3.55;3.22;;;8.10;99.90;;;;;;5034847;28;20208;-59
2024/02/22 02:39:53;;;;;;;4.88;3.45;;;8.10;99.90;;;;;;5034316;28;20225;-59
2024/02/22 02:42:21;;;;;;;4.03;3.55;;;8.10;99.90;;;;;;5034380;28;20242;-58
2024/02/22 02:44:48;;;;;;;4.97;3.20;;;8.10;99.90;;;;;;5034535;28;20206;-60
2024/02/22 02:47:16;;;;;;;5.15;3.47;;;8.10;99.90;;;;;;5034397;28;20203;-59
2024/02/22 02:49:42;;;;;;;5.60;3.15;;;8.10;99.90;;;;;;5034491;28;20203;-58
2024/02/22 02:52:09;;;;;;;4.50;3.50;;;8.10;99.90;;;;;;5032890;28;20275;-59
2024/02/22 02:54:36;;;;;;;5.82;3.08;;;8.10;99.90;;;;;;5034256;28;20240;-59
2024/02/22 02:57:03;;;;;;;3.88;3.47;;;8.10;99.90;;;;;;5034340;28;20205;-59
2024/02/22 02:59:31;;;;;;;5.03;3.40;;;8.10;99.90;;;;;;5034513;28;20219;-58
2024/02/22 03:01:58;;;;;;;3.15;2.55;;;8.20;99.90;;;;;;5035224;28;20236;-59
2024/02/22 03:04:24;;;;;;;4.55;2.83;;;8.10;99.90;;;;;;5034615;28;20206;-60
2024/02/22 03:06:51;;;;;;;4.90;3.20;;;8.10;99.90;;;;;;5034040;28;20704;-60
2024/02/22 03:09:18;;;;;;;5.15;3.50;;;8.10;99.90;;;;;;5034767;28;20211;-60
2024/02/22 03:11:45;;;;;;;3.75;3.20;;;8.20;99.90;;;;;;5033774;28;20225;-59
2024/02/22 03:14:11;;;;;;;3.15;2.60;;;8.20;99.90;;;;;;5034229;28;20210;-60
2024/02/22 03:16:40;;;;;;;2.58;2.30;;;8.20;99.90;;;;;;5034203;28;20213;-60
2024/02/22 03:19:06;;;;;;;3.15;2.83;;;8.20;99.90;;;;;;5033183;28;20639;-60
2024/02/22 03:21:33;;;;;;;3.45;3.15;;;8.20;99.90;;;;;;5033460;28;20228;-59
2024/02/22 03:24:00;;;;;;;3.13;2.55;;;8.20;99.90;;;;;;5033843;28;20210;-60
2024/02/22 03:26:27;;;;;;;3.80;2.63;;;8.20;99.90;;;;;;5033570;28;20209;-60
2024/02/22 03:28:53;;;;;;;2.97;2.53;;;8.20;99.90;;;;;;5033529;28;20216;-59
2024/02/22 03:31:22;;;;;;;3.50;2.40;;;8.20;99.90;;;;;;5034445;28;20221;-59
2024/02/22 03:33:50;;;;;;;4.13;3.10;;;8.20;99.90;;;;;;5033522;28;20206;-59
2024/02/22 03:36:17;;;;;;;3.38;3.08;;;8.20;99.90;;;;;;5033639;28;20201;-60
2024/02/22 03:38:43;;;;;;;3.10;2.80;;;8.20;99.90;;;;;;5033611;28;20597;-59
2024/02/22 03:41:10;;;;;;;4.20;2.75;;;8.20;99.90;;;;;;5032887;28;20209;-60
2024/02/22 03:43:38;;;;;;;2.80;2.60;;;8.20;99.90;;;;;;5032918;28;20213;-60
2024/02/22 03:46:05;;;;;;;2.85;2.22;;;8.20;99.90;;;;;;5033759;28;20203;-58
2024/02/22 03:48:32;;;;;;;2.40;2.20;;;8.20;99.90;;;;;;5033328;28;20199;-59
2024/02/22 03:51:00;;;;;;;2.55;2.35;;;8.20;99.90;;;;;;5033420;28;20202;-60
2024/02/22 03:53:27;;;;;;;3.33;2.65;;;8.20;99.90;;;;;;5033112;28;20200;-59
2024/02/22 03:55:53;;;;;;;3.55;2.60;;;8.20;99.90;;;;;;5033135;28;20209;-59
2024/02/22 03:58:20;;;;;;;2.60;2.38;;;8.20;99.90;;;;;;5033114;28;20250;-60
2024/02/22 04:00:47;;;;;;;2.40;2.00;;;8.20;99.90;;;;;;5032616;28;20760;-59
2024/02/22 04:03:14;;;;;;;3.88;2.75;;;8.20;99.90;;;;;;5032279;28;20237;-59
2024/02/22 04:05:42;;;;;;;2.60;2.20;;;8.20;99.90;;;;;;5032793;28;20255;-59
2024/02/22 04:08:10;;;;;;;2.97;2.20;;;8.20;99.90;;;;;;5032861;28;20228;-59
2024/02/22 04:13:14;;;;;;;3.15;2.60;;;8.30;99.90;;;;;;5090822;28;20581;-60
2024/02/22 04:15:40;;;;;;;3.75;2.60;;;8.30;99.90;;;;;;5090602;28;20211;-60
2024/02/22 04:18:07;;;;;;;3.50;3.20;;;8.30;99.90;;;;;;5090726;28;20210;-61
2024/02/22 04:20:34;;;;;;;1.85;1.65;;;8.30;99.90;;;;;;5090068;28;20209;-60
2024/02/22 04:23:01;;;;;;;2.10;1.90;;;8.30;99.90;;;;;;5090095;28;20241;-59
2024/02/22 04:25:27;;;;;;;1.88;1.70;;;8.30;99.90;;;;;;5090344;28;20219;-61
2024/02/22 04:27:54;;;;;;;2.38;1.83;;;8.30;99.90;;;;;;5090059;28;20208;-60
2024/02/22 04:30:22;;;;;;;2.47;1.73;;;8.30;99.90;;;;;;5090096;28;20203;-61
2024/02/22 04:32:49;;;;;;;2.97;2.28;;;8.30;99.90;;;;;;5089426;28;20232;-60
2024/02/22 04:35:16;;;;;;;1.73;1.63;;;8.30;99.90;;;;;;5090156;28;20198;-60
2024/02/22 04:37:43;;;;;;;1.83;1.70;;;8.30;99.90;;;;;;5089686;28;20707;-61
2024/02/22 04:40:11;;;;;;;2.15;1.95;;;8.40;99.90;;;;;;5090268;28;20255;-60
2024/02/22 04:42:38;;;;;;;1.27;1.15;;;8.40;99.90;;;;;;5089663;28;20230;-60
2024/02/22 04:45:06;;;;;;;1.95;1.60;;;8.40;99.90;;;;;;5090001;28;20203;-61
2024/02/22 04:47:36;;;;;;;5.55;1.85;;;8.40;99.90;;;;;;5089747;28;20737;-60
2024/02/22 04:50:04;;;;;;;2.08;1.67;;;8.40;99.90;;;;;;5090166;28;20206;-60
2024/02/22 04:52:31;;;;;;;1.30;1.17;;;8.40;99.90;;;;;;5089518;28;20276;-58
2024/02/22 04:54:59;;;;;;;2.28;1.63;;;8.40;99.90;;;;;;5089778;28;20208;-61
2024/02/22 04:57:26;;;;;;;2.00;1.70;;;8.40;99.90;;;;;;5089540;28;20689;-62
2024/02/22 04:59:53;;;;;;;1.88;1.50;;;8.40;99.90;;;;;;5089669;28;20204;-65
2024/02/22 05:02:20;;;;;;;1.40;1.27;;;8.40;99.90;;;;;;5090149;28;20223;-61
2024/02/22 05:04:48;;;;;;;1.80;1.30;;;8.40;99.90;;;;;;5089349;28;20206;-60
2024/02/22 05:07:15;;;;;;;1.50;1.20;;;8.40;99.90;;;;;;5090359;28;20209;-60
2024/02/22 05:09:42;;;;;;;1.10;1.00;;;8.40;99.90;;;;;;5089637;28;20204;-60
2024/02/22 05:12:10;;;;;;;1.60;1.50;;;8.40;99.90;;;;;;5089106;28;20230;-61
2024/02/22 05:14:37;;;;;;;1.15;0.90;;;8.40;99.90;;;;;;5089621;28;20207;-61
2024/02/22 05:17:04;;;;;;;2.30;1.50;;;8.40;99.90;;;;;;5089643;28;20227;-59
2024/02/22 05:19:31;;;;;;;1.90;1.13;;;8.40;99.90;;;;;;5089137;28;20683;-61
2024/02/22 05:21:59;;;;;;;3.92;1.00;;;8.40;99.90;;;;;;5089008;28;20742;-60
2024/02/22 05:24:27;;;;;;;1.40;0.85;;;8.40;99.90;;;;;;5076196;28;20225;-61
2024/02/22 05:26:54;;;;;;;1.10;1.00;;;8.40;99.90;;;;;;5075290;28;20664;-59
2024/02/22 05:29:21;;;;;;;2.60;1.10;;;8.40;99.90;;;;;;5075763;28;20202;-60
2024/02/22 05:31:48;;;;;;;1.20;1.10;;;8.40;99.90;;;;;;5075679;28;20547;-60
2024/02/22 05:34:15;;;;;;;1.77;1.25;;;8.40;99.90;;;;;;5076692;28;20300;-61
2024/02/22 05:36:41;;;;;;;1.50;1.40;;;8.40;99.90;;;;;;5076634;28;20205;-60
2024/02/22 05:39:11;;;;;;;2.00;1.02;;;8.40;99.90;;;;;;5077576;28;20207;-61
2024/02/22 05:41:38;;;;;;;1.48;1.10;;;8.40;99.90;;;;;;5076107;28;20245;-61
2024/02/22 05:44:05;;;;;;;2.05;0.90;;;8.40;99.90;;;;;;5076665;28;20203;-60
2024/02/22 05:46:31;;;;;;;1.52;0.80;;;8.40;99.90;;;;;;5076960;28;20203;-60
2024/02/22 05:48:58;;;;;;;1.25;0.90;;;8.40;99.90;;;;;;5077148;28;20197;-61
2024/02/22 05:51:25;;;;;;;1.38;1.10;;;8.40;99.90;;;;;;5076332;28;20229;-60
2024/02/22 05:53:53;;;;;;;1.77;0.95;;;8.40;99.90;;;;;;5076034;28;20205;-61
2024/02/22 05:56:22;;;;;;;1.10;0.93;;;8.40;99.90;;;;;;5076046;28;20663;-57
2024/02/22 05:58:48;;;;;;;1.10;1.00;;;8.40;99.90;;;;;;5077624;28;20624;-60
2024/02/22 06:01:15;;;;;;;2.78;1.05;;;8.40;99.90;;;;;;5076559;28;20224;-61
2024/02/22 06:03:42;;;;;;;1.60;1.05;;;8.40;99.90;;;;;;5075952;28;20222;-60
2024/02/22 06:06:09;;;;;;;1.50;1.00;;;8.50;99.90;;;;;;5075246;28;20213;-61
2024/02/22 06:08:36;;;;;;;1.10;1.00;;;8.40;99.90;;;;;;5075718;28;20209;-61
2024/02/22 06:11:03;;;;;;;2.25;0.95;;;8.40;99.90;;;;;;5074937;28;20215;-62
2024/02/22 06:13:31;;;;;;;1.40;1.25;;;8.40;99.90;;;;;;5076263;28;20209;-61
2024/02/22 06:15:58;;;;;;;1.00;0.90;;;8.50;99.90;;;;;;5077039;28;20623;-60
2024/02/22 06:18:24;;;;;;;1.60;0.90;;;8.50;99.90;;;;;;5076570;28;20204;-61
2024/02/22 06:20:51;;;;;;;1.23;0.95;;;8.50;99.90;;;;;;5075203;28;20201;-63
2024/02/22 06:23:19;;;;;;;1.85;1.75;;;8.50;99.90;;;;;;5074711;28;20675;-60
2024/02/22 06:25:46;;;;;;;0.80;0.70;;;8.50;99.90;;;;;;5074634;28;20227;-61
2024/02/22 06:28:12;;;;;;;1.00;0.90;;;8.50;99.90;;;;;;5074830;28;20205;-61
2024/02/22 06:30:41;;;;;;;1.60;1.00;;;8.50;99.90;;;;;;5074989;28;20209;-60
2024/02/22 06:33:08;;;;;;;1.05;0.93;;;8.50;99.90;;;;;;5074453;28;20224;-59
2024/02/22 06:35:35;;;;;;;1.40;1.30;;;8.50;99.90;;;;;;5073724;28;20201;-61
2024/02/22 06:38:01;;;;;;;1.50;1.30;;;8.50;99.90;;;;;;5074309;28;20235;-61
2024/02/22 06:40:28;;;;;;;1.80;1.00;;;8.50;99.90;;;;;;5074497;28;20577;-61
2024/02/22 06:42:55;;;;;;;2.25;1.10;;;8.60;99.90;;;;;;5074404;28;20218;-60
2024/02/22 06:45:23;;;;;;;0.88;0.88;;;8.60;99.90;;;;;;5074300;28;20224;-60
2024/02/22 06:47:52;;;;;;;1.73;0.95;;;8.60;99.90;;;;;;5074482;28;20291;-60
2024/02/22 06:50:18;;;;;;;1.00;0.90;;;8.60;99.90;;;;;;5075755;28;20227;-62
2024/02/22 06:52:45;;;;;;;2.03;1.17;;;8.60;99.90;;;;;;5074550;28;20546;-61
2024/02/22 06:55:13;;;;;;;1.15;0.75;;;8.60;99.90;;;;;;5074558;28;20249;-60
2024/02/22 06:57:40;;;;;;;2.72;1.85;;;8.60;99.90;;;;;;5075154;28;20204;-61
2024/02/22 07:00:09;;;;;;;1.10;1.00;;;8.70;99.90;;;;;;5075614;28;20203;-61
2024/02/22 07:02:36;;;;;;;1.08;0.93;;;8.70;99.90;;;;;;5074566;28;20327;-61
2024/02/22 07:05:04;;;;;;;1.10;0.85;;;8.70;99.90;;;;;;5075544;28;20210;-59
2024/02/22 07:07:31;;;;;;;1.08;0.70;;;8.70;99.90;;;;;;5074691;28;20210;-60
2024/02/22 07:09:58;;;;;;;1.15;0.70;;;8.80;99.90;;;;;;5074890;28;20284;-61
2024/02/22 07:12:24;;;;;;;1.13;1.02;;;8.80;99.90;;;;;;5074086;28;20223;-60
2024/02/22 07:14:51;;;;;;;1.15;0.93;;;8.80;99.90;;;;;;5074433;28;20205;-61
2024/02/22 07:17:18;;;;;;;1.20;1.10;;;8.80;99.90;;;;;;5075089;28;20209;-60
2024/02/22 07:19:45;;;;;;;0.90;0.75;;;8.80;99.90;;;;;;5074089;28;20303;-61
2024/02/22 07:22:13;;;;;;;1.10;0.95;;;8.80;99.90;;;;;;5074117;28;20227;-61
2024/02/22 07:24:40;;;;;;;1.67;0.80;;;8.80;99.90;;;;;;5074214;28;20684;-60
2024/02/22 07:27:07;;;;;;;2.85;0.73;;;8.80;99.90;;;;;;5074384;28;20209;-61
2024/02/22 07:29:34;;;;;;;0.70;0.60;;;8.80;99.90;;;;;;5074197;28;20279;-61
2024/02/22 07:32:01;;;;;;;1.70;0.60;;;8.80;99.90;;;;;;5073396;28;20232;-61
2024/02/22 07:34:28;;;;;;;0.80;0.63;;;8.80;99.90;;;;;;5074040;28;20224;-60
2024/02/22 07:36:55;;;;;;;0.60;0.55;;;8.80;99.90;;;;;;5073704;28;20223;-59
2024/02/22 07:39:23;;;;;;;2.40;0.80;;;8.80;99.90;;;;;;5073402;28;20210;-60
2024/02/22 07:41:50;;;;;;;2.20;0.65;;;8.80;99.90;;;;;;5074048;28;20601;-60
2024/02/22 07:44:17;;;;;;;1.85;1.05;;;8.70;99.90;;;;;;5073530;28;20208;-60
2024/02/22 07:46:43;;;;;;;1.30;0.85;;;8.80;99.90;;;;;;5073339;28;20220;-60
2024/02/22 07:49:10;;;;;;;0.73;0.73;;;8.80;99.90;;;;;;5074970;28;20197;-61
2024/02/22 07:51:37;;;;;;;1.02;0.80;;;8.80;99.90;;;;;;5075102;28;20602;-62
2024/02/22 07:54:04;;;;;;;1.20;0.60;;;8.80;99.90;;;;;;5074472;28;20223;-60
2024/02/22 07:56:33;;;;;;;0.73;0.73;;;8.80;99.90;;;;;;5074678;28;20232;-61
2024/02/22 07:59:00;;;;;;;2.28;1.20;;;8.80;99.90;;;;;;5076181;28;20629;-60
2024/02/22 08:01:27;;;;;;;1.30;0.95;;;8.80;99.90;;;;;;5077536;28;20252;-61
2024/02/22 08:03:54;;;;;;;1.58;1.25;;;8.80;99.90;;;;;;5073727;28;20200;-60
2024/02/22 08:06:21;;;;;;;1.40;0.93;;;8.90;99.90;;;;;;5073555;28;20222;-60
2024/02/22 08:08:47;;;;;;;1.17;1.08;;;8.90;99.90;;;;;;5073580;28;20667;-62
2024/02/22 08:11:15;;;;;;;1.15;1.00;;;9.00;99.90;;;;;;5073120;28;20233;-61
2024/02/22 08:13:44;;;;;;;1.20;1.02;;;9.00;99.90;;;;;;5074588;28;20205;-61
2024/02/22 08:16:11;;;;;;;1.55;1.40;;;9.00;99.90;;;;;;5074604;28;20208;-61
2024/02/22 08:18:40;;;;;;;1.63;1.30;;;9.00;99.90;;;;;;5075146;28;20210;-60
2024/02/22 08:21:08;;;;;;;2.15;1.45;;;9.10;99.90;;;;;;5074414;28;20603;-61
2024/02/22 08:23:35;;;;;;;2.22;1.67;;;9.10;99.90;;;;;;5076439;28;20201;-60
2024/02/22 08:26:02;;;;;;;2.60;1.70;;;9.20;99.90;;;;;;5076061;28;20210;-60
2024/02/22 08:28:29;;;;;;;2.72;1.40;;;9.20;99.90;;;;;;5074654;28;20445;-62
2024/02/22 08:30:57;;;;;;;1.87;1.40;;;9.20;99.90;;;;;;5075924;28;20742;-61
2024/02/22 08:33:26;;;;;;;3.30;1.70;;;9.20;99.90;;;;;;5076564;28;20908;-61
2024/02/22 08:35:54;;;;;;;2.50;1.73;;;9.30;99.90;;;;;;5077311;28;20440;-63
2024/02/22 08:38:21;;;;;;;2.20;1.90;;;9.30;99.90;;;;;;5077096;28;20212;-61
2024/02/22 08:40:48;;;;;;;2.40;2.20;;;9.30;99.90;;;;;;5078971;28;20214;-61
2024/02/22 08:43:16;;;;;;;4.33;1.80;;;9.30;99.90;;;;;;5078046;28;20215;-61
2024/02/22 08:45:43;;;;;;;2.00;1.90;;;9.40;99.90;;;;;;5078918;28;20447;-60
2024/02/22 08:48:11;;;;;;;2.80;2.20;;;9.40;99.90;;;;;;5083544;28;20927;-60
2024/02/22 08:50:38;;;;;;;2.58;1.95;;;9.50;99.90;;;;;;5077832;28;20449;-62
2024/02/22 08:53:05;;;;;;;4.10;2.80;;;9.60;99.90;;;;;;5081909;28;20226;-60
2024/02/22 08:55:31;;;;;;;2.30;2.10;;;9.70;99.90;;;;;;5078140;28;20452;-62
2024/02/22 08:57:58;;;;;;;2.80;2.50;;;9.80;99.90;;;;;;5077886;28;20444;-60
2024/02/22 09:00:25;;;;;;;2.63;1.90;;;9.90;99.90;;;;;;5081216;28;20455;-60
2024/02/22 09:02:52;;;;;;;2.70;1.90;;;9.90;99.90;;;;;;5080932;28;20460;-60
2024/02/22 09:05:20;;;;;;;2.77;1.83;;;9.90;99.90;;;;;;5081453;28;20455;-60
2024/02/22 09:07:49;;;;;;;2.70;2.00;;;10.00;99.90;;;;;;5080290;28;20449;-61
2024/02/22 09:10:16;;;;;;;3.00;1.73;;;10.00;99.90;;;;;;5079661;28;20445;-62
2024/02/22 09:12:43;;;;;;;2.93;2.10;;;10.00;99.90;;;;;;5076151;28;20488;-61
2024/02/22 09:15:11;;;;;;;2.10;1.40;;;10.10;99.90;;;;;;5076121;28;20823;-62
2024/02/22 09:17:38;;;;;;;4.87;2.87;;;10.10;99.90;;;;;;5076307;28;20437;-61
2024/02/22 09:20:05;;;;;;;2.90;2.43;;;10.10;99.90;;;;;;5076753;28;20442;-61
2024/02/22 09:22:34;;;;;;;6.53;2.27;;;10.20;99.90;;;;;;5076524;28;20466;-61
2024/02/22 09:25:06;;;;;;;2.77;1.70;;;10.30;99.90;;;;;;5077095;28;20453;-60
2024/02/22 09:27:32;;;;;;;2.10;1.60;;;10.50;99.90;;;;;;5076319;28;20901;-60
2024/02/22 09:30:01;;;;;;;1.50;1.40;;;10.60;99.90;;;;;;5078540;28;20511;-62
2024/02/22 09:32:28;;;;;;;2.40;1.90;;;10.70;99.90;;;;;;5077355;28;20556;-61
2024/02/22 09:34:55;;;;;;;1.83;1.67;;;10.80;99.90;;;;;;5078104;28;20444;-60
2024/02/22 09:37:22;;;;;;;3.20;1.80;;;10.80;99.90;;;;;;5076930;28;20447;-61
2024/02/22 09:39:50;;;;;;;1.63;1.40;;;10.90;99.90;;;;;;5076392;28;20475;-62
2024/02/22 09:42:18;;;;;;;3.23;2.23;;;10.90;99.90;;;;;;5076138;28;20469;-61
2024/02/22 09:44:46;;;;;;;3.30;2.13;;;10.90;99.90;;;;;;5076464;28;20476;-62
2024/02/22 09:47:15;;;;;;;3.17;2.10;;;11.00;99.90;;;;;;5075794;28;20630;-62
2024/02/22 09:49:42;;;;;;;2.60;1.90;;;11.00;99.90;;;;;;5076272;28;20452;-61
2024/02/22 09:52:11;;;;;;;3.10;2.30;;;11.10;99.90;;;;;;5075529;28;20466;-62
2024/02/22 09:54:38;;;;;;;3.07;1.83;;;11.10;99.90;;;;;;5075374;28;20469;-62
2024/02/22 09:57:06;;;;;;;2.20;1.93;;;11.00;99.90;;;;;;5075597;28;20821;-60
2024/02/22 09:59:33;;;;;;;2.43;2.17;;;11.10;99.90;;;;;;5075876;28;20924;-60
2024/02/22 10:02:05;;;;;;;2.90;2.03;;;11.10;99.90;;;;;;5076806;28;20461;-60
2024/02/22 10:04:33;;;;;;;2.77;2.03;;;11.20;99.90;;;;;;5077648;28;20422;-60
2024/02/22 10:07:03;;;;;;;3.17;2.03;;;11.30;99.90;;;;;;5077501;28;20442;-61
2024/02/22 10:09:31;;;;;;;3.77;2.00;;;11.50;99.90;;;;;;5076371;28;20440;-60
2024/02/22 10:12:00;;;;;;;3.90;3.10;;;11.70;99.90;;;;;;5075084;28;20520;-61
2024/02/22 10:14:36;;;;;;;3.87;1.97;;;11.80;99.90;;;;;;5074788;28;20484;-61
2024/02/22 10:17:06;;;;;;;1.80;1.47;;;11.90;99.90;;;;;;5075167;28;20434;-62
2024/02/22 10:19:33;;;;;;;2.60;1.77;;;12.00;99.90;;;;;;5074806;28;20823;-61
2024/02/22 10:22:00;;;;;;;2.60;1.40;;;12.00;99.90;;;;;;5075150;28;20467;-63
2024/02/22 10:24:27;;;;;;;2.17;1.97;;;12.00;99.90;;;;;;5075077;28;20499;-61
2024/02/22 10:27:02;;;;;;;2.57;1.90;;;12.10;99.90;;;;;;5074592;28;20826;-62
2024/02/22 10:29:30;;;;;;;1.60;1.20;;;12.10;99.90;;;;;;5075164;28;20473;-62
2024/02/22 10:31:57;;;;;;;3.17;1.80;;;12.20;99.90;;;;;;5074844;28;20640;-61
2024/02/22 10:34:25;;;;;;;2.97;2.20;;;12.20;99.90;;;;;;5074387;28;20482;-62
2024/02/22 10:36:56;;;;;;;1.90;1.63;;;12.20;99.90;;;;;;5074728;28;20477;-61
2024/02/22 10:39:25;;;;;;;2.97;2.20;;;12.30;99.90;;;;;;5074320;28;20876;-62
2024/02/22 10:41:53;;;;;;;2.10;1.40;;;12.40;99.90;;;;;;5074222;28;20965;-62
2024/02/22 10:44:20;;;;;;;2.17;1.97;;;12.40;99.90;;;;;;5074417;28;20439;-60
2024/02/22 10:46:51;;;;;;;2.57;2.00;;;12.50;99.90;;;;;;5074227;28;20448;-62
2024/02/22 10:49:19;;;;;;;1.80;1.27;;;12.60;99.90;;;;;;5075341;28;20456;-62
2024/02/22 10:51:50;;;;;;;2.20;1.90;;;12.60;99.90;;;;;;5073821;28;20972;-62
2024/02/22 10:54:18;;;;;;;5.30;1.97;;;12.70;99.90;;;;;;5074878;28;20534;-64
2024/02/22 10:56:49;;;;;;;3.10;1.80;;;12.70;99.90;;;;;;5074725;28;20819;-62
2024/02/22 10:59:20;;;;;;;3.27;2.23;;;12.60;99.90;;;;;;5075007;28;20920;-65
2024/02/22 11:01:50;;;;;;;2.90;2.43;;;12.70;99.90;;;;;;5073692;28;20502;-63
2024/02/22 11:04:17;;;;;;;3.63;2.10;;;12.70;99.90;;;;;;5074352;28;20424;-63
2024/02/22 11:06:44;;;;;;;2.27;1.73;;;12.80;99.90;;;;;;5074449;28;20447;-60
2024/02/22 11:09:18;;;;;;;3.50;1.23;;;12.80;99.90;;;;;;5074794;28;20450;-62
2024/02/22 11:11:48;;;;;;;4.23;2.27;;;12.90;99.90;;;;;;5075240;28;20542;-62
2024/02/22 11:14:26;;;;;;;5.70;1.60;;;12.90;99.90;;;;;;5074814;28;20499;-63
2024/02/22 11:16:54;;;;;;;5.43;3.57;;;12.90;99.90;;;;;;5074375;28;20444;-62
2024/02/22 11:19:24;;;;;;;3.30;2.13;;;13.00;99.90;;;;;;5073942;28;20447;-64
2024/02/22 11:21:52;;;;;;;2.33;1.90;;;13.10;99.90;;;;;;5073535;28;20470;-61
2024/02/22 11:24:22;;;;;;;3.13;2.20;;;13.20;99.90;;;;;;5073701;28;20443;-62
2024/02/22 11:26:50;;;;;;;4.60;3.13;;;13.30;99.90;;;;;;5073655;28;20976;-62
2024/02/22 11:29:26;;;;;;;1.60;1.00;;;13.40;99.90;;;;;;5073797;28;20526;-63
2024/02/22 11:31:55;;;;;;;3.27;2.30;;;13.50;99.90;;;;;;5073390;28;20524;-63
2024/02/22 11:34:24;;;;;;;2.20;1.73;;;13.50;99.90;;;;;;5073663;28;20484;-63
2024/02/22 11:36:51;;;;;;;3.43;1.77;;;13.60;99.90;;;;;;5073260;28;20513;-62
2024/02/22 11:39:18;;;;;;;2.20;1.37;;;13.80;99.90;;;;;;5073597;28;20448;-62
2024/02/22 11:41:48;;;;;;;1.70;1.40;;;13.90;99.90;;;;;;5072887;28;20970;-62
2024/02/22 11:44:16;;;;;;;0.90;0.83;;;14.10;99.90;;;;;;5073868;28;20497;-63
2024/02/22 11:46:45;;;;;;;2.43;1.20;;;14.30;99.90;;;;;;5073488;28;20441;-62
2024/02/22 11:49:14;;;;;;;1.53;1.30;;;14.40;99.90;;;;;;5073374;28;20459;-63
2024/02/22 11:51:42;;;;;;;1.20;0.90;;;14.40;99.90;;;;;;5073298;28;20468;-63
2024/02/22 11:54:10;;;;;;;1.20;1.00;;;14.50;99.90;;;;;;5072620;28;20483;-64
2024/02/22 11:56:38;;;;;;;1.83;1.40;;;14.50;99.90;;;;;;5073592;28;20445;-63
2024/02/22 11:59:07;;;;;;;1.23;1.07;;;14.40;99.90;;;;;;5073488;28;20442;-63
2024/02/22 12:01:34;;;;;;;2.30;1.40;;;14.20;99.90;;;;;;5073992;28;20467;-62
2024/02/22 12:04:01;;;;;;;1.87;1.33;;;14.10;99.90;;;;;;5073402;28;20540;-62
2024/02/22 12:06:30;;;;;;;1.70;1.40;;;13.90;99.90;;;;;;5073756;28;20447;-63
2024/02/22 12:08:57;;;;;;;1.40;1.23;;;13.90;99.90;;;;;;5074608;28;20466;-63
2024/02/22 12:11:24;;;;;;;1.23;1.10;;;13.80;99.90;;;;;;5073491;28;20478;-63
2024/02/22 12:13:58;;;;;;;1.20;0.93;;;13.80;99.90;;;;;;5072819;28;21053;-62
2024/02/22 12:16:26;;;;;;;1.20;0.93;;;13.80;99.90;;;;;;5073689;28;20447;-61
2024/02/22 12:18:53;;;;;;;1.07;0.80;;;13.70;99.90;;;;;;5073269;28;20443;-63
2024/02/22 12:21:21;;;;;;;1.17;0.93;;;13.60;99.90;;;;;;5073285;28;20482;-62
2024/02/22 12:23:49;;;;;;;1.87;0.80;;;13.50;99.90;;;;;;5073336;28;20489;-61
2024/02/22 12:26:18;;;;;;;1.53;0.80;;;13.50;99.90;;;;;;5072795;28;20450;-62
2024/02/22 12:28:49;;;;;;;1.10;0.70;;;13.50;99.90;;;;;;5072886;28;20789;-62
2024/02/22 12:31:18;;;;;;;1.40;1.00;;;13.50;99.90;;;;;;5072611;28;20472;-62
2024/02/22 12:33:48;;;;;;;3.03;0.90;;;13.60;99.90;;;;;;5074809;28;20476;-61
2024/02/22 12:36:14;;;;;;;1.20;0.80;;;13.70;99.90;;;;;;5076715;28;20814;-62
2024/02/22 12:38:41;;;;;;;1.90;0.90;;;13.80;99.90;;;;;;5078328;28;20451;-62
2024/02/22 12:41:09;;;;;;;1.17;0.60;;;13.90;99.90;;;;;;5079534;28;20436;-63
2024/02/22 12:43:36;;;;;;;1.07;0.80;;;14.10;99.90;;;;;;5077379;28;20450;-62
2024/02/22 12:46:03;;;;;;;1.63;0.80;;;14.20;99.90;;;;;;5077802;28;20964;-62
2024/02/22 12:48:30;;;;;;;0.60;0.40;;;14.30;99.90;;;;;;5077708;28;20600;-62
2024/02/22 12:50:57;;;;;;;0.80;0.60;;;14.50;99.90;;;;;;5077928;28;20448;-62
2024/02/22 12:53:25;;;;;;;2.03;0.80;;;14.70;99.90;;;;;;5081801;28;20468;-63
2024/02/22 12:55:51;;;;;;;1.10;0.60;;;14.90;99.90;;;;;;5084480;28;20479;-61
2024/02/22 12:58:19;;;;;;;0.50;0.40;;;14.90;99.90;;;;;;5078270;28;20440;-62